Fort Severn, Canada
Current Conditions -  °F | °C
As of 8:00 PM on Tuesday 25 Nov 2014 (Local Time) from CYER Reporting Station
Overcast Overcast  
Wind Chill: -37°   Ceiling: 4400
Heat Index: -13°   Visibility: 9mi
Dew Point: -18°   Wind: 16mph
Humidity: 77%   Direction: 280°W
Pressure: 29.94"   Gusts: 26mph
Location:  55.98°N, 87.65°W
Report Text: CYER 260100Z AUTO 28014G23KT 9SM OVC044 M25/M28 A2994 RMK SLP141
Loading
Personal Weather Stations






























Interactive Weather Map New forecast layout! Learn more

10-Day Weather Forecast

Advertisements
Track Severe Weather on mobile